Time;durP1;ratioP1;P1;durP2;ratioP2;P2;SDS_P1;SDS_P2;PMS_P1;PMS_P2;Temp;Humidity;BMP_temperature;BMP_pressure;BME280_temperature;BME280_humidity;BME280_pressure;Samples;Min_cycle;Max_cycle;Signal;HPM_P1;HPM_P2
2024/01/24 00:00:20;;;;;;;21.15;14.68;;;;;;;;;;5072522;28;20670;-49
2024/01/24 00:02:48;;;;;;;22.08;15.10;;;;;;;;;;5072446;28;20127;-49
2024/01/24 00:05:14;;;;;;;21.35;14.40;;;;;;;;;;5072622;28;20036;-51
2024/01/24 00:07:40;;;;;;;20.10;13.60;;;;;;;;;;5069738;28;20051;-50
2024/01/24 00:10:06;;;;;;;23.80;14.48;;;;;;;;;;5072546;28;20028;-49
2024/01/24 00:12:33;;;;;;;20.35;14.13;;;;;;;;;;5071946;28;20480;-50
2024/01/24 00:14:59;;;;;;;21.50;13.70;;;;;;;;;;5071980;28;20594;-51
2024/01/24 00:17:25;;;;;;;21.80;13.55;;;6.20;99.90;;;;;;5072337;28;20044;-50
2024/01/24 00:19:51;;;;;;;19.38;13.45;;;6.20;99.90;;;;;;5071998;28;20545;-50
2024/01/24 00:22:16;;;;;;;22.23;13.70;;;6.30;99.90;;;;;;5071913;28;20036;-50
2024/01/24 00:24:42;;;;;;;19.60;14.00;;;6.30;99.90;;;;;;5069474;28;20102;-49
2024/01/24 00:27:08;;;;;;;20.63;13.32;;;6.20;99.90;;;;;;5071705;28;20047;-50
2024/01/24 00:29:34;;;;;;;18.30;13.68;;;6.30;99.90;;;;;;5071790;28;20040;-49
2024/01/24 00:31:59;;;;;;;21.60;12.82;;;6.20;99.90;;;;;;5072161;28;20032;-51
2024/01/24 00:34:25;;;;;;;18.75;13.35;;;6.20;99.90;;;;;;5071769;28;20534;-51
2024/01/24 00:36:51;;;;;;;20.95;13.30;;;6.30;99.90;;;;;;5048715;28;20630;-51
2024/01/24 00:39:17;;;;;;;20.02;13.65;;;6.30;99.90;;;;;;5015695;28;20041;-51
2024/01/24 00:41:42;;;;;;;20.42;12.40;;;6.40;99.90;;;;;;5015468;28;20048;-50
2024/01/24 00:44:09;;;;;;;19.45;14.63;;;;;;;;;;5049179;28;20032;-49
2024/01/24 00:46:35;;;;;;;20.02;12.73;;;6.40;99.90;;;;;;5048872;28;20539;-50
2024/01/24 00:49:02;;;;;;;17.48;12.60;;;6.10;99.90;;;;;;5049095;28;20200;-51
2024/01/24 00:51:28;;;;;;;16.63;12.10;;;6.60;99.90;;;;;;5048952;28;20131;-50
2024/01/24 00:53:54;;;;;;;19.80;12.50;;;6.60;99.90;;;;;;5048844;28;20662;-50
2024/01/24 00:56:20;;;;;;;15.82;11.65;;;6.30;99.90;;;;;;5048852;28;20075;-50
2024/01/24 00:58:46;;;;;;;18.10;11.00;;;6.40;99.90;;;;;;5048764;28;20481;-49
2024/01/24 01:01:12;;;;;;;18.50;11.45;;;6.40;99.90;;;;;;5048754;28;20033;-51
2024/01/24 01:03:38;;;;;;;17.15;12.32;;;6.40;99.90;;;;;;4998868;28;20068;-49
2024/01/24 01:06:05;;;;;;;17.45;12.07;;;6.40;99.90;;;;;;5048684;28;20051;-50
2024/01/24 01:08:30;;;;;;;17.95;12.18;;;6.40;99.90;;;;;;5081832;28;20048;-49
2024/01/24 01:10:56;;;;;;;17.98;11.40;;;6.50;99.90;;;;;;5090509;28;20038;-49
2024/01/24 01:13:22;;;;;;;16.23;11.00;;;6.40;99.90;;;;;;5091243;28;20031;-51
2024/01/24 01:15:48;;;;;;;16.10;11.20;;;6.50;99.90;;;;;;5090936;28;20036;-50
2024/01/24 01:18:14;;;;;;;15.45;10.82;;;6.50;99.90;;;;;;5090235;28;20042;-51
2024/01/24 01:20:39;;;;;;;15.20;10.43;;;6.60;99.90;;;;;;5021280;28;20075;-51
2024/01/24 01:23:05;;;;;;;13.98;9.85;;;6.40;99.90;;;;;;5052811;28;20039;-51
2024/01/24 01:25:31;;;;;;;12.93;9.40;;;6.20;99.90;;;;;;5070808;28;20048;-51
2024/01/24 01:27:57;;;;;;;14.43;9.80;;;6.30;99.90;;;;;;5006676;28;20049;-49
2024/01/24 01:30:23;;;;;;;13.95;9.93;;;6.30;99.90;;;;;;5091102;28;20032;-49
2024/01/24 01:32:50;;;;;;;14.60;9.60;;;6.40;99.90;;;;;;5090876;28;20396;-50
2024/01/24 01:35:16;;;;;;;14.23;9.27;;;6.40;99.90;;;;;;5090928;28;20122;-51
2024/01/24 01:37:42;;;;;;;12.43;9.07;;;6.40;99.90;;;;;;5090952;28;20060;-50
2024/01/24 01:40:08;;;;;;;15.80;9.70;;;6.20;99.90;;;;;;5039505;28;20079;-51
2024/01/24 01:42:34;;;;;;;12.40;8.60;;;6.30;99.90;;;;;;5018899;28;20040;-49
2024/01/24 01:44:59;;;;;;;13.57;8.05;;;6.30;99.90;;;;;;5070694;28;20078;-50
2024/01/24 01:47:25;;;;;;;12.73;9.13;;;6.30;99.90;;;;;;5018399;28;20056;-51
2024/01/24 01:49:52;;;;;;;12.15;7.60;;;7.10;99.90;;;;;;5070924;28;20028;-50
2024/01/24 01:52:19;;;;;;;11.45;7.82;;;6.30;99.90;;;;;;5070591;28;20029;-50
2024/01/24 01:54:46;;;;;;;13.35;8.65;;;;;;;;;;5071224;28;20115;-49
2024/01/24 01:57:14;;;;;;;12.15;7.38;;;6.30;99.90;;;;;;5070934;28;20033;-49
2024/01/24 01:59:44;;;;;;;11.57;7.93;;;6.30;99.90;;;;;;5070776;28;20400;-50
2024/01/24 02:02:11;;;;;;;12.13;7.03;;;6.30;99.90;;;;;;5070978;28;20029;-51
2024/01/24 02:04:37;;;;;;;12.15;7.00;;;6.30;99.90;;;;;;5070819;28;20032;-49
2024/01/24 02:07:03;;;;;;;10.75;6.82;;;6.30;99.90;;;;;;5070381;28;20384;-49
2024/01/24 02:09:29;;;;;;;11.15;6.05;;;6.40;99.90;;;;;;5070565;28;20039;-49
2024/01/24 02:11:55;;;;;;;13.07;7.60;;;6.30;99.90;;;;;;5070601;28;20028;-50
2024/01/24 02:14:21;;;;;;;9.55;6.78;;;6.60;99.90;;;;;;5051642;28;20106;-50
2024/01/24 02:16:46;;;;;;;15.07;7.75;;;6.40;99.90;;;;;;5070506;28;20464;-49
2024/01/24 02:19:12;;;;;;;9.85;6.40;;;6.40;99.90;;;;;;5070387;28;20029;-50
2024/01/24 02:21:38;;;;;;;9.95;6.13;;;6.40;99.90;;;;;;5071924;28;20035;-50
2024/01/24 02:24:09;;;;;;;9.38;5.88;;;6.40;99.90;;;;;;5038519;28;20127;-49
2024/01/24 02:26:35;;;;;;;11.00;6.32;;;6.40;99.90;;;;;;5074438;28;20036;-50
2024/01/24 02:29:00;;;;;;;12.07;6.80;;;6.40;99.90;;;;;;5074055;28;20025;-49
2024/01/24 02:31:26;;;;;;;11.50;6.45;;;6.40;99.90;;;;;;5074233;28;20047;-50
2024/01/24 02:33:52;;;;;;;8.20;5.22;;;6.40;99.90;;;;;;5022244;28;20076;-50
2024/01/24 02:36:18;;;;;;;10.70;6.53;;;6.40;99.90;;;;;;5073877;28;20083;-50
2024/01/24 02:38:43;;;;;;;8.13;5.78;;;6.30;99.90;;;;;;5074272;28;20020;-50
2024/01/24 02:41:09;;;;;;;11.57;5.70;;;6.30;99.90;;;;;;5073786;28;20036;-50
2024/01/24 02:43:35;;;;;;;8.65;5.82;;;6.30;99.90;;;;;;5073858;28;20035;-49
2024/01/24 02:46:01;;;;;;;9.52;5.60;;;6.30;99.90;;;;;;5073690;28;20476;-50
2024/01/24 02:48:27;;;;;;;9.27;5.85;;;6.40;99.90;;;;;;5038387;28;20040;-50
2024/01/24 02:50:53;;;;;;;7.78;5.38;;;6.30;99.90;;;;;;5073697;28;20487;-49
2024/01/24 02:53:20;;;;;;;7.07;5.43;;;6.30;99.90;;;;;;5079725;28;20398;-49
2024/01/24 02:55:46;;;;;;;7.68;4.88;;;6.20;99.90;;;;;;5075776;28;20054;-50
2024/01/24 02:58:12;;;;;;;10.70;5.68;;;6.10;99.90;;;;;;5041102;28;20115;-50
2024/01/24 03:00:38;;;;;;;8.95;5.60;;;6.20;99.90;;;;;;5093941;28;20410;-50
2024/01/24 03:03:04;;;;;;;8.27;5.70;;;6.00;99.90;;;;;;5038076;28;20047;-48
2024/01/24 03:05:30;;;;;;;8.27;5.50;;;6.10;99.90;;;;;;4988828;28;20593;-50
2024/01/24 03:07:59;;;;;;;10.25;5.88;;;;;;;;;;5073236;28;20133;-50
2024/01/24 03:10:26;;;;;;;8.75;5.68;;;;;;;;;;5073497;28;20519;-51
2024/01/24 03:12:55;;;;;;;7.50;5.50;;;;;;;;;;5073706;28;20051;-49
2024/01/24 03:15:22;;;;;;;9.98;5.40;;;;;;;;;;5073326;28;20032;-52
2024/01/24 03:17:48;;;;;;;11.43;7.10;;;;;;;;;;5073390;28;20467;-50
2024/01/24 03:20:14;;;;;;;10.23;7.30;;;;;;;;;;5054340;28;20068;-50
2024/01/24 03:22:40;;;;;;;13.25;7.30;;;;;;;;;;5073149;28;20036;-50
2024/01/24 03:25:07;;;;;;;10.40;6.30;;;;;;;;;;5073434;28;20078;-50
2024/01/24 03:27:33;;;;;;;11.25;7.32;;;;;;;;;;5072994;28;20036;-50
2024/01/24 03:29:59;;;;;;;12.05;6.90;;;;;;;;;;5073322;28;20020;-50
2024/01/24 03:32:25;;;;;;;9.85;6.85;;;;;;;;;;5053683;28;20044;-49
2024/01/24 03:34:52;;;;;;;8.90;6.45;;;;;;;;;;5072335;28;20053;-49
2024/01/24 03:37:18;;;;;;;11.10;6.70;;;;;;;;;;5072988;28;20035;-50
2024/01/24 03:39:44;;;;;;;11.32;6.80;;;;;;;;;;5037689;28;20041;-49
2024/01/24 03:42:10;;;;;;;12.00;6.40;;;;;;;;;;5072992;28;20059;-50
2024/01/24 03:44:37;;;;;;;9.35;6.35;;;;;;;;;;5072651;28;20028;-51
2024/01/24 03:47:03;;;;;;;9.50;6.30;;;;;;;;;;5072866;28;20469;-49
2024/01/24 03:49:29;;;;;;;12.05;7.75;;;;;;;;;;5072622;28;20109;-49
2024/01/24 03:51:55;;;;;;;10.25;6.72;;;;;;;;;;5072666;28;20079;-49
2024/01/24 03:54:22;;;;;;;11.10;6.70;;;;;;;;;;5072413;28;20056;-50
2024/01/24 03:56:48;;;;;;;10.52;6.90;;;;;;;;;;5072498;28;20450;-50
2024/01/24 03:59:14;;;;;;;9.48;6.35;;;;;;;;;;5072917;28;20028;-49
2024/01/24 04:01:40;;;;;;;9.65;6.75;;;;;;;;;;5072096;28;20032;-49
2024/01/24 04:04:07;;;;;;;10.48;6.97;;;;;;;;;;5072493;28;20020;-51
2024/01/24 04:06:33;;;;;;;9.55;6.25;;;;;;;;;;5036508;28;20040;-49
2024/01/24 04:08:59;;;;;;;9.93;6.28;;;;;;;;;;5072244;28;20029;-50
2024/01/24 04:11:26;;;;;;;11.98;7.03;;;;;;;;;;5072160;28;20032;-50
2024/01/24 04:14:01;;;;;;;10.68;6.55;;;;;;;;;;5053216;28;20105;-49
2024/01/24 04:16:27;;;;;;;10.60;5.85;;;;;;;;;;5072111;28;20419;-49
2024/01/24 04:18:53;;;;;;;10.23;6.47;;;;;;;;;;5087905;28;20107;-49
2024/01/24 04:21:19;;;;;;;12.60;6.93;;;;;;;;;;5082720;28;20109;-49
2024/01/24 04:23:45;;;;;;;11.35;7.03;;;;;;;;;;5092010;28;20024;-49
2024/01/24 04:26:12;;;;;;;8.43;5.88;;;;;;;;;;5091992;28;20028;-50
2024/01/24 04:28:38;;;;;;;8.52;5.40;;;;;;;;;;5092165;28;20036;-49
2024/01/24 04:31:04;;;;;;;8.43;5.47;;;;;;;;;;5092045;28;20067;-50
2024/01/24 04:33:31;;;;;;;10.43;7.53;;;;;;;;;;5056252;28;20040;-49
2024/01/24 04:35:57;;;;;;;13.02;9.95;;;;;;;;;;5091641;28;20059;-50
2024/01/24 04:38:24;;;;;;;17.38;12.07;;;;;;;;;;5091968;28;20085;-50
2024/01/24 04:40:50;;;;;;;16.60;11.05;;;;;;;;;;5039901;28;20059;-50
2024/01/24 04:43:16;;;;;;;13.65;9.73;;;;;;;;;;5092297;28;20035;-50
2024/01/24 04:45:42;;;;;;;13.52;7.68;;;;;;;;;;5055813;28;20086;-50
2024/01/24 04:48:08;;;;;;;22.45;9.95;;;;;;;;;;5091631;28;20072;-50
2024/01/24 04:50:34;;;;;;;31.90;16.35;;;;;;;;;;5092018;28;20035;-50
2024/01/24 04:53:00;;;;;;;28.73;13.73;;;;;;;;;;5091951;28;20116;-49
2024/01/24 04:55:26;;;;;;;27.10;14.55;;;;;;;;;;5091624;28;20028;-50
2024/01/24 04:57:52;;;;;;;20.02;9.88;;;;;;;;;;5091418;28;20118;-50
2024/01/24 05:00:18;;;;;;;15.65;7.47;;;;;;;;;;5055746;28;20078;-49
2024/01/24 05:02:44;;;;;;;14.43;7.95;;;;;;;;;;5055465;28;20047;-50
2024/01/24 05:05:11;;;;;;;12.18;6.57;;;;;;;;;;5091481;28;20028;-49
2024/01/24 05:07:37;;;;;;;10.93;6.25;;;;;;;;;;5055641;28;20738;-49
2024/01/24 05:10:04;;;;;;;20.42;9.88;;;;;;;;;;5091531;28;20024;-50
2024/01/24 05:12:30;;;;;;;21.95;9.20;;;;;;;;;;5090898;28;20028;-48
2024/01/24 05:14:57;;;;;;;20.20;9.80;;;;;;;;;;5090901;28;20047;-49
2024/01/24 05:17:22;;;;;;;18.02;9.32;;;5.80;99.90;;;;;;5091605;28;20034;-49
2024/01/24 05:19:48;;;;;;;15.75;7.72;;;5.40;99.90;;;;;;5091128;28;20020;-49
2024/01/24 05:22:15;;;;;;;14.15;7.93;;;;;;;;;;5091387;28;20162;-48
2024/01/24 05:24:45;;;;;;;14.80;7.25;;;;;;;;;;5090900;28;20434;-50
2024/01/24 05:27:11;;;;;;;12.65;7.47;;;;;;;;;;5091040;28;20552;-50
2024/01/24 05:29:37;;;;;;;11.13;7.32;;;4.90;99.90;;;;;;5088821;28;20039;-50
2024/01/24 05:32:03;;;;;;;11.07;7.90;;;4.80;99.90;;;;;;5090828;28;20085;-50
2024/01/24 05:34:29;;;;;;;11.77;7.10;;;4.70;99.90;;;;;;5087824;28;20085;-50
2024/01/24 05:36:55;;;;;;;63.35;41.22;;;;;;;;;;5080238;28;20615;-50
2024/01/24 05:39:20;;;;;;;24.05;16.80;;;3.80;99.90;;;;;;5080773;28;20021;-50
2024/01/24 05:41:46;;;;;;;22.95;15.63;;;3.00;99.90;;;;;;5026747;28;20392;-51
2024/01/24 05:44:12;;;;;;;28.77;21.42;;;2.60;99.90;;;;;;5080936;28;20024;-49
2024/01/24 05:46:37;;;;;;;39.50;24.63;;;2.40;99.90;;;;;;5080191;28;20033;-50
2024/01/24 05:49:03;;;;;;;40.40;26.23;;;2.30;99.90;;;;;;5078758;28;20040;-50
2024/01/24 05:51:29;;;;;;;47.22;31.77;;;2.40;99.90;;;;;;5083101;28;20078;-49
2024/01/24 05:53:55;;;;;;;49.80;33.83;;;2.60;99.90;;;;;;5038312;28;20040;-49
2024/01/24 05:56:20;;;;;;;47.25;31.25;;;2.60;99.90;;;;;;5047843;28;20059;-50
2024/01/24 05:58:46;;;;;;;66.43;42.63;;;2.60;99.90;;;;;;5082355;28;20046;-51
2024/01/24 06:01:12;;;;;;;27.55;15.20;;;2.60;99.90;;;;;;5083704;28;20051;-50
2024/01/24 06:03:40;;;;;;;19.10;12.40;;;2.50;99.90;;;;;;5030635;28;20037;-51
2024/01/24 06:06:06;;;;;;;18.90;12.05;;;2.40;99.90;;;;;;5063818;28;20089;-52
2024/01/24 06:08:32;;;;;;;19.45;11.43;;;2.30;99.90;;;;;;5084754;28;20028;-50
2024/01/24 06:10:58;;;;;;;17.52;11.20;;;2.20;99.90;;;;;;5083915;28;20019;-51
2024/01/24 06:13:24;;;;;;;20.58;12.48;;;2.20;99.90;;;;;;5084948;28;20029;-50
2024/01/24 06:15:51;;;;;;;19.27;12.77;;;2.20;99.90;;;;;;5090833;28;20115;-52
2024/01/24 06:18:17;;;;;;;18.65;11.95;;;2.50;99.90;;;;;;5074993;28;20153;-50
2024/01/24 06:20:43;;;;;;;22.33;13.52;;;2.60;99.90;;;;;;5082316;28;20040;-50
2024/01/24 06:23:08;;;;;;;24.33;15.80;;;2.70;99.90;;;;;;5082583;28;20028;-49
2024/01/24 06:25:34;;;;;;;23.58;15.50;;;2.90;99.90;;;;;;5094424;28;20035;-51
2024/01/24 06:28:00;;;;;;;24.85;15.50;;;2.90;99.90;;;;;;5092802;28;20510;-49
2024/01/24 06:30:26;;;;;;;21.90;13.50;;;3.00;99.90;;;;;;5035724;28;20056;-51
2024/01/24 06:32:51;;;;;;;18.15;11.95;;;3.20;99.90;;;;;;5051979;28;20074;-51
2024/01/24 06:35:17;;;;;;;15.43;10.52;;;3.20;99.90;;;;;;5092868;28;20157;-50
2024/01/24 06:37:43;;;;;;;15.18;8.85;;;3.20;99.90;;;;;;5079232;28;20044;-49
2024/01/24 06:40:12;;;;;;;16.48;9.70;;;3.10;99.90;;;;;;5073661;28;20178;-51
2024/01/24 06:42:40;;;;;;;16.30;9.77;;;3.10;99.90;;;;;;5039211;28;20127;-52
2024/01/24 06:45:07;;;;;;;15.23;9.98;;;;;;;;;;5073805;28;20052;-50
2024/01/24 06:47:32;;;;;;;21.33;12.15;;;7.10;99.90;;;;;;5054946;28;20052;-50
2024/01/24 06:49:59;;;;;;;16.23;10.90;;;;;;;;;;5073853;28;20032;-51
2024/01/24 06:52:25;;;;;;;20.48;9.77;;;;;;;;;;5073799;28;20159;-51
2024/01/24 06:54:51;;;;;;;16.40;10.52;;;9.50;98.80;;;;;;5038434;28;20052;-51
2024/01/24 06:57:17;;;;;;;14.15;9.38;;;10.30;97.30;;;;;;5073427;28;20029;-50
2024/01/24 06:59:43;;;;;;;16.23;11.27;;;10.80;95.30;;;;;;5073774;28;20043;-50
2024/01/24 07:02:09;;;;;;;17.75;12.48;;;11.50;95.40;;;;;;5073440;28;20032;-50
2024/01/24 07:04:35;;;;;;;18.73;12.68;;;;;;;;;;5073574;28;20105;-50
2024/01/24 07:07:01;;;;;;;16.08;12.10;;;15.00;90.80;;;;;;5073045;28;20040;-52
2024/01/24 07:09:27;;;;;;;16.73;12.13;;;15.50;90.10;;;;;;5085851;28;20030;-51
2024/01/24 07:11:52;;;;;;;14.70;10.20;;;15.80;86.90;;;;;;5093031;28;20066;-49
2024/01/24 07:14:19;;;;;;;14.02;10.63;;;14.90;87.00;;;;;;5027389;28;20040;-51
2024/01/24 07:16:45;;;;;;;13.63;9.75;;;15.80;86.90;;;;;;5080845;28;20039;-50
2024/01/24 07:19:11;;;;;;;13.73;10.07;;;15.50;87.00;;;;;;5045218;28;20392;-50
2024/01/24 07:21:37;;;;;;;13.82;10.15;;;;;;;;;;5030767;28;20028;-50
2024/01/24 07:24:03;;;;;;;16.23;12.70;;;14.90;85.20;;;;;;5055785;28;20602;-51
2024/01/24 07:26:29;;;;;;;14.98;12.70;;;14.90;85.90;;;;;;5015152;28;20051;-52
2024/01/24 07:28:56;;;;;;;18.08;12.48;;;;;;;;;;5083431;28;20016;-48
2024/01/24 07:31:22;;;;;;;21.77;16.08;;;18.80;84.90;;;;;;5080716;28;20054;-51
2024/01/24 07:33:48;;;;;;;19.85;14.32;;;;;;;;;;5073055;28;20472;-48
2024/01/24 07:36:14;;;;;;;19.70;15.43;;;20.20;81.10;;;;;;5020317;28;20052;-49
2024/01/24 07:38:40;;;;;;;16.85;12.80;;;;;;;;;;5050096;28;20819;-49
2024/01/24 07:41:07;;;;;;;18.15;12.82;;;;;;;;;;5033446;28;20854;-50
2024/01/24 07:43:33;;;;;;;18.45;13.07;;;;;;;;;;5050073;28;20429;-49
2024/01/24 07:46:01;;;;;;;15.95;12.63;;;22.20;90.20;;;;;;5050099;28;20503;-50
2024/01/24 07:48:26;;;;;;;16.77;14.05;;;22.20;76.00;;;;;;5049981;28;20447;-51
2024/01/24 07:50:52;;;;;;;23.92;17.92;;;;;;;;;;5050087;28;20033;-50
2024/01/24 07:53:18;;;;;;;19.10;15.82;;;23.30;75.00;;;;;;5057493;28;20048;-51
2024/01/24 07:55:44;;;;;;;26.67;19.85;;;23.00;73.80;;;;;;5059625;28;20060;-49
2024/01/24 07:58:10;;;;;;;21.73;16.90;;;22.80;73.50;;;;;;5055771;28;20066;-51
2024/01/24 08:00:36;;;;;;;19.00;15.38;;;22.20;72.90;;;;;;4993367;28;20048;-50
2024/01/24 08:03:02;;;;;;;18.70;14.68;;;20.90;74.00;;;;;;5048390;28;20032;-49
2024/01/24 08:05:29;;;;;;;21.40;17.00;;;19.30;74.00;;;;;;5013360;28;20520;-50
2024/01/24 08:07:56;;;;;;;19.50;14.90;;;17.00;75.90;;;;;;5034804;28;20064;-50
2024/01/24 08:10:21;;;;;;;14.95;13.15;;;16.80;77.50;;;;;;5081784;28;20035;-49
2024/01/24 08:12:49;;;;;;;17.40;14.48;;;15.40;79.10;;;;;;5089049;28;20028;-51
2024/01/24 08:15:15;;;;;;;21.45;16.42;;;16.70;81.10;;;;;;5089889;28;20118;-50
2024/01/24 08:17:40;;;;;;;17.83;15.05;;;16.20;80.80;;;;;;5053293;28;20419;-50
2024/01/24 08:20:10;;;;;;;15.45;12.02;;;16.40;81.50;;;;;;5089111;28;20030;-50
2024/01/24 08:22:36;;;;;;;25.88;17.20;;;16.80;80.60;;;;;;5037832;28;20044;-49
2024/01/24 08:25:02;;;;;;;53.50;38.92;;;14.50;81.70;;;;;;5052230;28;20446;-50
2024/01/24 08:27:28;;;;;;;84.80;67.82;;;12.70;84.30;;;;;;5089119;28;20085;-49
2024/01/24 08:29:53;;;;;;;40.00;34.80;;;11.70;86.60;;;;;;5090684;28;20020;-50
2024/01/24 08:32:19;;;;;;;32.38;28.58;;;11.50;88.70;;;;;;5090023;28;20131;-51
2024/01/24 08:34:45;;;;;;;21.02;16.92;;;12.00;89.20;;;;;;5089785;28;20028;-50
2024/01/24 08:37:12;;;;;;;17.98;14.35;;;11.90;88.40;;;;;;5089403;28;20036;-52
2024/01/24 08:39:40;;;;;;;19.35;13.43;;;11.80;88.90;;;;;;5052891;28;20040;-51
2024/01/24 08:42:06;;;;;;;17.27;12.85;;;10.90;90.80;;;;;;5053321;28;20028;-50
2024/01/24 08:44:32;;;;;;;20.83;14.93;;;10.50;91.30;;;;;;5004514;28;20089;-50
2024/01/24 08:46:57;;;;;;;23.42;17.80;;;10.60;91.70;;;;;;5036270;28;20479;-50
2024/01/24 08:49:23;;;;;;;39.47;24.48;;;10.90;91.70;;;;;;5090638;28;20127;-51
2024/01/24 08:51:49;;;;;;;39.05;22.17;;;10.20;92.10;;;;;;5090302;28;20040;-50
2024/01/24 08:54:15;;;;;;;44.90;28.67;;;9.40;93.30;;;;;;5089831;28;20032;-50
2024/01/24 08:56:41;;;;;;;35.67;22.45;;;9.30;94.80;;;;;;5037758;28;20040;-51
2024/01/24 08:59:06;;;;;;;46.00;24.80;;;9.10;95.60;;;;;;5090377;28;20416;-52
2024/01/24 09:01:33;;;;;;;29.52;19.00;;;9.10;96.60;;;;;;5090174;28;20468;-51
2024/01/24 09:03:59;;;;;;;24.13;17.10;;;9.60;96.20;;;;;;5088061;28;20032;-51
2024/01/24 09:06:25;;;;;;;22.70;15.73;;;9.80;95.40;;;;;;5089835;28;20102;-51
2024/01/24 09:08:52;;;;;;;25.73;18.35;;;9.90;95.10;;;;;;5026790;28;20088;-51
2024/01/24 09:11:21;;;;;;;24.92;17.65;;;9.80;95.40;;;;;;5026712;28;20481;-49
2024/01/24 09:13:48;;;;;;;20.85;14.52;;;9.80;95.50;;;;;;5025047;28;20038;-50
2024/01/24 09:16:14;;;;;;;17.83;12.43;;;9.70;95.30;;;;;;5024416;28;20026;-50
2024/01/24 09:18:41;;;;;;;17.80;12.48;;;9.50;95.60;;;;;;5027488;28;20460;-49
2024/01/24 09:21:07;;;;;;;15.75;11.75;;;9.20;96.10;;;;;;5025636;28;20103;-50
2024/01/24 09:23:32;;;;;;;15.15;11.05;;;9.20;96.80;;;;;;5026859;28;20470;-50
2024/01/24 09:25:58;;;;;;;12.38;8.77;;;9.30;96.80;;;;;;4994717;28;20378;-48
2024/01/24 09:28:24;;;;;;;12.35;9.02;;;9.30;96.90;;;;;;5027511;28;20637;-50
2024/01/24 09:30:50;;;;;;;13.15;8.63;;;9.40;96.90;;;;;;5026204;28;20029;-50
2024/01/24 09:33:16;;;;;;;11.38;7.75;;;9.30;97.20;;;;;;4978430;28;20077;-49
2024/01/24 09:35:44;;;;;;;13.38;7.65;;;9.20;97.10;;;;;;5025628;28;20053;-50
2024/01/24 09:38:10;;;;;;;7.57;4.13;;;8.90;97.90;;;;;;5021815;28;20157;-50
2024/01/24 09:40:36;;;;;;;11.35;6.07;;;;;;;;;;5071567;28;20122;-49
2024/01/24 09:43:02;;;;;;;9.63;5.60;;;8.50;99.90;;;;;;5068034;28;20090;-50
2024/01/24 09:45:28;;;;;;;11.02;6.80;;;8.50;99.30;;;;;;5089117;28;20032;-50
2024/01/24 09:47:58;;;;;;;8.70;6.10;;;8.40;99.60;;;;;;5036919;28;20118;-50
2024/01/24 09:50:24;;;;;;;13.15;6.03;;;8.50;99.60;;;;;;5037113;28;20040;-49
2024/01/24 09:52:55;;;;;;;12.82;6.38;;;8.70;99.00;;;;;;5056705;28;20105;-50
2024/01/24 09:55:22;;;;;;;12.00;6.50;;;8.70;98.90;;;;;;5088864;28;20066;-50
2024/01/24 09:57:48;;;;;;;11.32;5.93;;;8.60;99.30;;;;;;5089511;28;20035;-50
2024/01/24 10:00:15;;;;;;;10.60;6.45;;;8.60;99.20;;;;;;5088235;28;20032;-53
2024/01/24 10:02:50;;;;;;;10.55;6.20;;;8.60;99.30;;;;;;5033708;28;20044;-51
2024/01/24 10:05:17;;;;;;;11.63;7.03;;;8.60;99.50;;;;;;5087117;28;20115;-50
2024/01/24 10:07:43;;;;;;;21.80;12.98;;;8.50;99.30;;;;;;5089308;28;20036;-49
2024/01/24 10:10:12;;;;;;;21.58;13.98;;;8.60;99.50;;;;;;5087652;28;20076;-51
2024/01/24 10:12:41;;;;;;;12.68;8.30;;;8.50;99.40;;;;;;5053552;28;20047;-50
2024/01/24 10:15:08;;;;;;;11.48;7.95;;;8.50;99.20;;;;;;5089218;28;20031;-53
2024/01/24 10:17:34;;;;;;;10.00;7.38;;;8.50;99.50;;;;;;5029327;28;20404;-50
2024/01/24 10:20:00;;;;;;;14.77;8.75;;;8.80;99.40;;;;;;5045438;28;20083;-50
2024/01/24 10:22:26;;;;;;;13.70;8.88;;;8.90;99.40;;;;;;5046271;28;20589;-50
2024/01/24 10:24:54;;;;;;;12.68;8.02;;;9.10;99.40;;;;;;5046513;28;20119;-51
2024/01/24 10:27:20;;;;;;;15.20;10.45;;;9.10;98.90;;;;;;5040553;28;20678;-50
2024/01/24 10:29:46;;;;;;;17.85;10.65;;;;;;;;;;5044986;28;20162;-51
2024/01/24 10:32:12;;;;;;;15.15;10.20;;;;;;;;;;5046009;28;20507;-51
2024/01/24 10:34:39;;;;;;;19.63;10.63;;;9.50;97.80;;;;;;5046084;28;20029;-52
2024/01/24 10:37:08;;;;;;;19.23;11.35;;;9.40;98.30;;;;;;5004041;28;20038;-51
2024/01/24 10:39:35;;;;;;;18.67;10.70;;;9.40;98.40;;;;;;4988347;28;20505;-51
2024/01/24 10:42:04;;;;;;;18.38;10.63;;;9.50;98.50;;;;;;5007447;28;20068;-51
2024/01/24 10:44:34;;;;;;;19.13;11.45;;;9.60;98.30;;;;;;4915653;28;20045;-51
2024/01/24 10:47:03;;;;;;;19.55;12.35;;;9.60;98.20;;;;;;5008257;28;20112;-51
2024/01/24 10:49:30;;;;;;;23.05;14.07;;;9.50;98.10;;;;;;5019279;28;20183;-51
2024/01/24 10:51:57;;;;;;;22.13;13.52;;;9.50;98.30;;;;;;5024940;28;20042;-52
2024/01/24 10:54:23;;;;;;;21.38;13.52;;;9.60;99.20;;;;;;5028649;28;20571;-52
2024/01/24 10:56:50;;;;;;;18.42;11.68;;;9.70;98.40;;;;;;5028082;28;20042;-51
2024/01/24 10:59:17;;;;;;;16.85;9.20;;;9.70;98.50;;;;;;5028090;28;20042;-51
2024/01/24 11:01:44;;;;;;;12.60;8.43;;;9.60;98.70;;;;;;5028059;28;20045;-51
2024/01/24 11:04:13;;;;;;;16.77;8.60;;;9.60;99.00;;;;;;5029556;28;20756;-51
2024/01/24 11:06:48;;;;;;;13.85;8.77;;;9.60;98.70;;;;;;5027906;28;20053;-51
2024/01/24 11:09:34;;;;;;;15.40;9.55;;;9.60;98.60;;;;;;5069311;28;20041;-51
2024/01/24 11:12:00;;;;;;;15.18;8.98;;;9.70;98.60;;;;;;5067425;28;20036;-51
2024/01/24 11:14:36;;;;;;;14.45;9.52;;;9.60;98.30;;;;;;5071388;28;20167;-51
2024/01/24 11:17:03;;;;;;;18.25;10.15;;;9.60;98.40;;;;;;5033301;28;20127;-51
2024/01/24 11:19:30;;;;;;;15.43;10.80;;;9.60;98.40;;;;;;5066978;28;20037;-51
2024/01/24 11:22:04;;;;;;;25.52;13.43;;;9.70;98.60;;;;;;5072324;28;20174;-52
2024/01/24 11:24:43;;;;;;;39.10;19.45;;;9.70;98.80;;;;;;5071843;28;20039;-53
2024/01/24 11:27:27;;;;;;;30.60;16.73;;;9.80;98.70;;;;;;5070016;28;20079;-52
2024/01/24 11:29:54;;;;;;;31.38;15.75;;;10.20;98.90;;;;;;5071638;28;20191;-51
2024/01/24 11:32:45;;;;;;;83.75;39.33;;;10.50;97.80;;;;;;5072087;28;20032;-52
2024/01/24 11:35:37;;;;;;;32.88;17.90;;;10.50;97.30;;;;;;5074280;28;20078;-51
2024/01/24 11:38:06;;;;;;;18.45;12.00;;;10.70;97.80;;;;;;5090266;28;20052;-52
2024/01/24 11:40:40;;;;;;;18.40;12.80;;;11.10;97.30;;;;;;5092445;28;20055;-51
2024/01/24 11:43:06;;;;;;;19.65;14.43;;;11.20;96.70;;;;;;5090954;28;20036;-51
2024/01/24 11:45:34;;;;;;;32.15;22.02;;;11.10;97.50;;;;;;5091048;28;20110;-52
2024/01/24 11:48:00;;;;;;;35.10;22.40;;;11.20;98.40;;;;;;5092006;28;20082;-52
2024/01/24 11:50:25;;;;;;;25.52;16.55;;;11.20;97.50;;;;;;5090067;28;20036;-52
2024/01/24 11:52:58;;;;;;;16.92;11.20;;;11.00;97.20;;;;;;5073354;28;20032;-52
2024/01/24 11:55:24;;;;;;;14.32;9.73;;;11.10;96.70;;;;;;5089022;28;20020;-51
2024/01/24 11:57:50;;;;;;;12.45;8.77;;;11.10;96.60;;;;;;5072860;28;20429;-53
2024/01/24 12:00:16;;;;;;;31.65;24.80;;;11.30;96.30;;;;;;5091617;28;20032;-51
2024/01/24 12:02:42;;;;;;;93.20;65.90;;;;;;;;;;5033262;28;20062;-52
2024/01/24 12:05:09;;;;;;;415.35;350.52;;;11.10;96.50;;;;;;5088654;28;20027;-53
2024/01/24 12:07:35;;;;;;;402.50;349.63;;;11.10;96.70;;;;;;5091717;28;20135;-51
2024/01/24 12:10:01;;;;;;;165.73;133.82;;;11.10;97.20;;;;;;5049328;28;20033;-51
2024/01/24 12:12:28;;;;;;;181.35;151.75;;;11.00;97.40;;;;;;5049583;28;20033;-52
2024/01/24 12:14:55;;;;;;;118.75;87.63;;;11.00;97.80;;;;;;5049445;28;20045;-52
2024/01/24 12:17:22;;;;;;;106.20;87.28;;;10.90;97.60;;;;;;5047387;28;20025;-51
2024/01/24 12:19:47;;;;;;;125.53;104.93;;;11.00;97.50;;;;;;5049099;28;20099;-52
2024/01/24 12:22:14;;;;;;;168.48;134.00;;;11.10;97.30;;;;;;5032576;28;20413;-52
2024/01/24 12:24:40;;;;;;;141.10;114.50;;;10.70;97.60;;;;;;5049146;28;20041;-50
2024/01/24 12:27:08;;;;;;;119.78;68.47;;;10.60;98.00;;;;;;5049599;28;20485;-49
2024/01/24 12:29:33;;;;;;;90.53;49.25;;;10.60;98.40;;;;;;5040440;28;20075;-52
2024/01/24 12:32:01;;;;;;;44.85;29.85;;;10.60;98.90;;;;;;5015395;28;20181;-50
2024/01/24 12:34:30;;;;;;;40.08;25.98;;;11.00;98.80;;;;;;5049250;28;20558;-51
2024/01/24 12:37:00;;;;;;;28.45;16.17;;;11.20;97.60;;;;;;5031996;28;20048;-49
2024/01/24 12:39:34;;;;;;;21.83;13.02;;;11.10;96.60;;;;;;5049047;28;20559;-51
2024/01/24 12:42:01;;;;;;;45.58;25.95;;;10.80;96.60;;;;;;5085570;28;20032;-50
2024/01/24 12:44:26;;;;;;;35.00;19.45;;;10.80;97.00;;;;;;5089718;28;20510;-50
2024/01/24 12:46:56;;;;;;;40.75;26.17;;;10.40;97.80;;;;;;5089417;28;20111;-50
2024/01/24 12:49:25;;;;;;;32.33;19.98;;;10.40;98.50;;;;;;5053711;28;20676;-51
2024/01/24 12:51:53;;;;;;;25.27;14.57;;;10.20;99.10;;;;;;5089629;28;20368;-50
2024/01/24 12:54:19;;;;;;;22.90;11.57;;;10.00;99.10;;;;;;5090568;28;20150;-51
2024/01/24 12:56:47;;;;;;;20.27;10.85;;;10.00;99.00;;;;;;5087470;28;20028;-50
2024/01/24 12:59:13;;;;;;;20.80;11.95;;;10.10;99.30;;;;;;5089508;28;20039;-50